sensor_id;sensor_type;location;lat;lon;timestamp;P1;durP1;ratioP1;P2;durP2;ratioP2
22415;SDS011;12204;50.600;4.608;2024-02-21T00:02:24;6.43;;;2.03;;
22415;SDS011;12204;50.600;4.608;2024-02-21T00:07:28;6.65;;;2.13;;
22415;SDS011;12204;50.600;4.608;2024-02-21T00:12:33;6.47;;;2.28;;
22415;SDS011;12204;50.600;4.608;2024-02-21T00:17:36;7.65;;;2.22;;
22415;SDS011;12204;50.600;4.608;2024-02-21T00:22:41;5.80;;;2.20;;
22415;SDS011;12204;50.600;4.608;2024-02-21T00:27:45;6.13;;;2.17;;
22415;SDS011;12204;50.600;4.608;2024-02-21T00:32:49;6.57;;;2.40;;
22415;SDS011;12204;50.600;4.608;2024-02-21T00:37:52;7.25;;;2.30;;
22415;SDS011;12204;50.600;4.608;2024-02-21T00:42:57;6.05;;;2.25;;
22415;SDS011;12204;50.600;4.608;2024-02-21T00:48:01;6.22;;;2.28;;
22415;SDS011;12204;50.600;4.608;2024-02-21T00:53:05;5.80;;;2.30;;
22415;SDS011;12204;50.600;4.608;2024-02-21T00:58:10;6.75;;;2.30;;
22415;SDS011;12204;50.600;4.608;2024-02-21T01:03:13;6.38;;;2.17;;
22415;SDS011;12204;50.600;4.608;2024-02-21T01:08:17;6.22;;;2.10;;
22415;SDS011;12204;50.600;4.608;2024-02-21T01:13:22;5.40;;;2.10;;
22415;SDS011;12204;50.600;4.608;2024-02-21T01:18:25;6.32;;;1.90;;
22415;SDS011;12204;50.600;4.608;2024-02-21T01:23:29;4.72;;;1.80;;
22415;SDS011;12204;50.600;4.608;2024-02-21T01:28:33;6.38;;;2.00;;
22415;SDS011;12204;50.600;4.608;2024-02-21T01:33:38;5.97;;;2.25;;
22415;SDS011;12204;50.600;4.608;2024-02-21T01:38:42;6.50;;;2.03;;
22415;SDS011;12204;50.600;4.608;2024-02-21T01:43:47;5.38;;;1.90;;
22415;SDS011;12204;50.600;4.608;2024-02-21T01:48:50;5.97;;;2.20;;
22415;SDS011;12204;50.600;4.608;2024-02-21T01:53:54;6.57;;;2.10;;
22415;SDS011;12204;50.600;4.608;2024-02-21T01:59:00;5.50;;;1.98;;
22415;SDS011;12204;50.600;4.608;2024-02-21T02:04:04;6.78;;;1.80;;
22415;SDS011;12204;50.600;4.608;2024-02-21T02:09:07;7.03;;;1.95;;
22415;SDS011;12204;50.600;4.608;2024-02-21T02:14:12;6.00;;;1.90;;
22415;SDS011;12204;50.600;4.608;2024-02-21T02:19:16;7.70;;;1.90;;
22415;SDS011;12204;50.600;4.608;2024-02-21T02:24:21;6.03;;;2.30;;
22415;SDS011;12204;50.600;4.608;2024-02-21T02:29:27;6.18;;;1.95;;
22415;SDS011;12204;50.600;4.608;2024-02-21T02:34:30;5.55;;;1.83;;
22415;SDS011;12204;50.600;4.608;2024-02-21T02:39:35;5.45;;;2.10;;
22415;SDS011;12204;50.600;4.608;2024-02-21T02:44:39;4.38;;;1.73;;
22415;SDS011;12204;50.600;4.608;2024-02-21T02:49:45;5.05;;;1.77;;
22415;SDS011;12204;50.600;4.608;2024-02-21T02:54:53;5.00;;;1.90;;
22415;SDS011;12204;50.600;4.608;2024-02-21T02:59:57;4.95;;;1.70;;
22415;SDS011;12204;50.600;4.608;2024-02-21T03:05:01;6.13;;;1.90;;
22415;SDS011;12204;50.600;4.608;2024-02-21T03:10:17;5.88;;;1.75;;
22415;SDS011;12204;50.600;4.608;2024-02-21T03:15:21;5.20;;;1.92;;
22415;SDS011;12204;50.600;4.608;2024-02-21T03:20:24;5.40;;;1.80;;
22415;SDS011;12204;50.600;4.608;2024-02-21T03:25:29;5.60;;;1.85;;
22415;SDS011;12204;50.600;4.608;2024-02-21T03:30:32;5.93;;;1.70;;
22415;SDS011;12204;50.600;4.608;2024-02-21T03:35:36;5.53;;;2.00;;
22415;SDS011;12204;50.600;4.608;2024-02-21T03:40:40;5.25;;;1.77;;
22415;SDS011;12204;50.600;4.608;2024-02-21T03:45:44;8.10;;;1.83;;
22415;SDS011;12204;50.600;4.608;2024-02-21T03:50:47;7.05;;;1.63;;
22415;SDS011;12204;50.600;4.608;2024-02-21T03:55:52;4.93;;;1.70;;
22415;SDS011;12204;50.600;4.608;2024-02-21T04:00:56;4.70;;;1.80;;
22415;SDS011;12204;50.600;4.608;2024-02-21T04:06:02;4.70;;;1.52;;
22415;SDS011;12204;50.600;4.608;2024-02-21T04:11:08;5.30;;;1.52;;
22415;SDS011;12204;50.600;4.608;2024-02-21T04:16:11;5.20;;;1.80;;
22415;SDS011;12204;50.600;4.608;2024-02-21T04:21:15;5.00;;;1.60;;
22415;SDS011;12204;50.600;4.608;2024-02-21T04:26:21;5.05;;;1.60;;
22415;SDS011;12204;50.600;4.608;2024-02-21T04:31:24;4.45;;;1.60;;
22415;SDS011;12204;50.600;4.608;2024-02-21T04:36:28;5.25;;;1.70;;
22415;SDS011;12204;50.600;4.608;2024-02-21T04:41:33;4.93;;;1.65;;
22415;SDS011;12204;50.600;4.608;2024-02-21T04:46:36;5.15;;;1.85;;
22415;SDS011;12204;50.600;4.608;2024-02-21T04:51:40;5.60;;;1.38;;
22415;SDS011;12204;50.600;4.608;2024-02-21T04:56:45;5.38;;;1.65;;
22415;SDS011;12204;50.600;4.608;2024-02-21T05:01:51;6.70;;;1.60;;
22415;SDS011;12204;50.600;4.608;2024-02-21T05:06:55;6.38;;;1.50;;
22415;SDS011;12204;50.600;4.608;2024-02-21T05:12:00;7.65;;;1.55;;
22415;SDS011;12204;50.600;4.608;2024-02-21T05:17:04;6.18;;;1.65;;
22415;SDS011;12204;50.600;4.608;2024-02-21T05:22:07;4.90;;;1.60;;
22415;SDS011;12204;50.600;4.608;2024-02-21T05:27:12;5.80;;;1.70;;
22415;SDS011;12204;50.600;4.608;2024-02-21T05:32:15;4.85;;;1.58;;
22415;SDS011;12204;50.600;4.608;2024-02-21T05:37:19;3.83;;;1.50;;
22415;SDS011;12204;50.600;4.608;2024-02-21T05:42:23;3.67;;;1.45;;
22415;SDS011;12204;50.600;4.608;2024-02-21T05:47:27;5.15;;;1.45;;
22415;SDS011;12204;50.600;4.608;2024-02-21T05:52:30;3.90;;;1.48;;
22415;SDS011;12204;50.600;4.608;2024-02-21T05:57:35;3.65;;;1.50;;
22415;SDS011;12204;50.600;4.608;2024-02-21T06:02:39;4.13;;;1.50;;
22415;SDS011;12204;50.600;4.608;2024-02-21T06:07:42;3.53;;;1.30;;
22415;SDS011;12204;50.600;4.608;2024-02-21T06:12:47;4.75;;;1.40;;
22415;SDS011;12204;50.600;4.608;2024-02-21T06:17:50;4.68;;;1.60;;
22415;SDS011;12204;50.600;4.608;2024-02-21T06:22:54;4.72;;;1.50;;
22415;SDS011;12204;50.600;4.608;2024-02-21T06:27:59;4.78;;;1.52;;
22415;SDS011;12204;50.600;4.608;2024-02-21T06:33:02;4.10;;;1.40;;
22415;SDS011;12204;50.600;4.608;2024-02-21T06:38:07;3.55;;;1.40;;
22415;SDS011;12204;50.600;4.608;2024-02-21T06:43:12;6.05;;;1.50;;
22415;SDS011;12204;50.600;4.608;2024-02-21T06:48:15;5.85;;;1.50;;
22415;SDS011;12204;50.600;4.608;2024-02-21T06:53:21;7.05;;;1.50;;
22415;SDS011;12204;50.600;4.608;2024-02-21T06:58:25;4.88;;;1.40;;
22415;SDS011;12204;50.600;4.608;2024-02-21T07:03:29;9.35;;;1.70;;
22415;SDS011;12204;50.600;4.608;2024-02-21T07:08:33;4.88;;;1.60;;
22415;SDS011;12204;50.600;4.608;2024-02-21T07:13:37;6.95;;;1.40;;
22415;SDS011;12204;50.600;4.608;2024-02-21T07:18:41;6.32;;;1.70;;
22415;SDS011;12204;50.600;4.608;2024-02-21T07:23:45;4.15;;;1.40;;
22415;SDS011;12204;50.600;4.608;2024-02-21T07:28:50;4.45;;;1.30;;
22415;SDS011;12204;50.600;4.608;2024-02-21T07:33:53;7.57;;;1.50;;
22415;SDS011;12204;50.600;4.608;2024-02-21T07:38:57;7.22;;;1.38;;
22415;SDS011;12204;50.600;4.608;2024-02-21T07:44:02;7.97;;;1.52;;
22415;SDS011;12204;50.600;4.608;2024-02-21T07:49:06;6.70;;;1.50;;
22415;SDS011;12204;50.600;4.608;2024-02-21T07:54:10;9.95;;;1.52;;
22415;SDS011;12204;50.600;4.608;2024-02-21T07:59:19;5.55;;;1.38;;
22415;SDS011;12204;50.600;4.608;2024-02-21T08:04:22;6.03;;;1.50;;
22415;SDS011;12204;50.600;4.608;2024-02-21T08:09:26;6.93;;;1.50;;
22415;SDS011;12204;50.600;4.608;2024-02-21T08:14:31;7.63;;;1.60;;
22415;SDS011;12204;50.600;4.608;2024-02-21T08:19:34;16.52;;;1.88;;
22415;SDS011;12204;50.600;4.608;2024-02-21T08:24:38;13.05;;;1.80;;
22415;SDS011;12204;50.600;4.608;2024-02-21T08:29:43;7.13;;;1.88;;
22415;SDS011;12204;50.600;4.608;2024-02-21T08:34:47;11.20;;;2.00;;
22415;SDS011;12204;50.600;4.608;2024-02-21T08:39:50;6.35;;;1.70;;
22415;SDS011;12204;50.600;4.608;2024-02-21T08:44:55;7.75;;;1.95;;
22415;SDS011;12204;50.600;4.608;2024-02-21T08:49:58;11.18;;;2.15;;
22415;SDS011;12204;50.600;4.608;2024-02-21T08:55:15;7.40;;;2.30;;
22415;SDS011;12204;50.600;4.608;2024-02-21T09:00:20;6.82;;;2.25;;
22415;SDS011;12204;50.600;4.608;2024-02-21T09:05:29;8.85;;;2.45;;
22415;SDS011;12204;50.600;4.608;2024-02-21T09:10:32;6.55;;;2.00;;
22415;SDS011;12204;50.600;4.608;2024-02-21T09:15:37;7.47;;;2.13;;
22415;SDS011;12204;50.600;4.608;2024-02-21T09:20:41;9.98;;;2.22;;
22415;SDS011;12204;50.600;4.608;2024-02-21T09:25:44;6.13;;;2.00;;
22415;SDS011;12204;50.600;4.608;2024-02-21T09:30:49;9.95;;;2.28;;
22415;SDS011;12204;50.600;4.608;2024-02-21T09:35:53;5.97;;;2.03;;
22415;SDS011;12204;50.600;4.608;2024-02-21T09:40:58;7.90;;;2.13;;
22415;SDS011;12204;50.600;4.608;2024-02-21T09:46:07;6.60;;;1.90;;
22415;SDS011;12204;50.600;4.608;2024-02-21T09:51:18;8.23;;;2.33;;
22415;SDS011;12204;50.600;4.608;2024-02-21T09:56:23;7.40;;;2.15;;
22415;SDS011;12204;50.600;4.608;2024-02-21T10:01:28;8.40;;;2.10;;
22415;SDS011;12204;50.600;4.608;2024-02-21T10:06:36;6.72;;;2.35;;
22415;SDS011;12204;50.600;4.608;2024-02-21T10:11:40;6.85;;;1.83;;
22415;SDS011;12204;50.600;4.608;2024-02-21T10:16:46;7.20;;;2.38;;
22415;SDS011;12204;50.600;4.608;2024-02-21T10:21:59;7.27;;;2.00;;
22415;SDS011;12204;50.600;4.608;2024-02-21T10:27:06;8.65;;;1.92;;
22415;SDS011;12204;50.600;4.608;2024-02-21T10:32:14;9.25;;;2.20;;
22415;SDS011;12204;50.600;4.608;2024-02-21T10:37:18;6.38;;;1.80;;
22415;SDS011;12204;50.600;4.608;2024-02-21T10:42:24;6.38;;;1.80;;
22415;SDS011;12204;50.600;4.608;2024-02-21T10:47:34;6.65;;;1.90;;
22415;SDS011;12204;50.600;4.608;2024-02-21T10:52:44;5.00;;;1.80;;
22415;SDS011;12204;50.600;4.608;2024-02-21T10:57:58;4.60;;;1.50;;
22415;SDS011;12204;50.600;4.608;2024-02-21T11:03:04;5.55;;;1.70;;
22415;SDS011;12204;50.600;4.608;2024-02-21T11:08:08;6.30;;;1.60;;
22415;SDS011;12204;50.600;4.608;2024-02-21T11:13:12;5.63;;;1.60;;
22415;SDS011;12204;50.600;4.608;2024-02-21T11:18:24;5.97;;;1.70;;
22415;SDS011;12204;50.600;4.608;2024-02-21T11:23:27;5.97;;;1.50;;
22415;SDS011;12204;50.600;4.608;2024-02-21T11:28:31;5.35;;;1.60;;
22415;SDS011;12204;50.600;4.608;2024-02-21T11:33:36;5.35;;;1.67;;
22415;SDS011;12204;50.600;4.608;2024-02-21T11:38:42;5.85;;;1.92;;
22415;SDS011;12204;50.600;4.608;2024-02-21T11:43:46;4.97;;;1.40;;
22415;SDS011;12204;50.600;4.608;2024-02-21T11:48:52;4.75;;;1.30;;
22415;SDS011;12204;50.600;4.608;2024-02-21T11:53:56;3.63;;;1.30;;
22415;SDS011;12204;50.600;4.608;2024-02-21T11:59:02;7.95;;;1.60;;
22415;SDS011;12204;50.600;4.608;2024-02-21T12:04:09;6.55;;;1.80;;
22415;SDS011;12204;50.600;4.608;2024-02-21T12:09:13;9.48;;;2.10;;
22415;SDS011;12204;50.600;4.608;2024-02-21T12:14:18;10.20;;;2.72;;
22415;SDS011;12204;50.600;4.608;2024-02-21T12:19:22;14.82;;;3.50;;
22415;SDS011;12204;50.600;4.608;2024-02-21T12:24:27;16.65;;;4.10;;
22415;SDS011;12204;50.600;4.608;2024-02-21T12:29:32;13.50;;;3.35;;
22415;SDS011;12204;50.600;4.608;2024-02-21T12:34:36;15.93;;;3.80;;
22415;SDS011;12204;50.600;4.608;2024-02-21T12:39:54;18.17;;;4.13;;
22415;SDS011;12204;50.600;4.608;2024-02-21T12:44:57;15.52;;;4.10;;
22415;SDS011;12204;50.600;4.608;2024-02-21T12:50:03;13.38;;;3.90;;
22415;SDS011;12204;50.600;4.608;2024-02-21T12:55:09;15.00;;;4.20;;
22415;SDS011;12204;50.600;4.608;2024-02-21T13:00:13;15.07;;;4.18;;
22415;SDS011;12204;50.600;4.608;2024-02-21T13:05:20;13.55;;;3.80;;
22415;SDS011;12204;50.600;4.608;2024-02-21T13:10:24;16.08;;;4.13;;
22415;SDS011;12204;50.600;4.608;2024-02-21T13:15:28;14.27;;;3.67;;
22415;SDS011;12204;50.600;4.608;2024-02-21T13:20:33;10.77;;;3.43;;
22415;SDS011;12204;50.600;4.608;2024-02-21T13:25:36;14.10;;;3.72;;
22415;SDS011;12204;50.600;4.608;2024-02-21T13:30:40;12.20;;;3.42;;
22415;SDS011;12204;50.600;4.608;2024-02-21T13:35:45;13.05;;;3.63;;
22415;SDS011;12204;50.600;4.608;2024-02-21T13:40:48;11.48;;;3.75;;
22415;SDS011;12204;50.600;4.608;2024-02-21T13:45:55;11.68;;;3.38;;
22415;SDS011;12204;50.600;4.608;2024-02-21T13:51:01;11.20;;;3.50;;
22415;SDS011;12204;50.600;4.608;2024-02-21T13:56:05;12.43;;;3.60;;
22415;SDS011;12204;50.600;4.608;2024-02-21T14:01:10;10.07;;;3.08;;
22415;SDS011;12204;50.600;4.608;2024-02-21T14:06:15;8.35;;;2.55;;
22415;SDS011;12204;50.600;4.608;2024-02-21T14:11:19;11.80;;;3.33;;
22415;SDS011;12204;50.600;4.608;2024-02-21T14:16:23;9.85;;;3.17;;
22415;SDS011;12204;50.600;4.608;2024-02-21T14:21:28;8.57;;;2.88;;
22415;SDS011;12204;50.600;4.608;2024-02-21T14:26:31;8.60;;;2.90;;
22415;SDS011;12204;50.600;4.608;2024-02-21T14:31:37;8.63;;;2.80;;
22415;SDS011;12204;50.600;4.608;2024-02-21T14:36:42;10.30;;;2.70;;
22415;SDS011;12204;50.600;4.608;2024-02-21T14:41:45;10.25;;;2.97;;
22415;SDS011;12204;50.600;4.608;2024-02-21T14:46:49;9.90;;;2.80;;
22415;SDS011;12204;50.600;4.608;2024-02-21T14:51:54;8.40;;;2.90;;
22415;SDS011;12204;50.600;4.608;2024-02-21T14:56:57;11.02;;;3.10;;
22415;SDS011;12204;50.600;4.608;2024-02-21T15:02:00;8.30;;;2.92;;
22415;SDS011;12204;50.600;4.608;2024-02-21T15:07:05;7.60;;;2.35;;
22415;SDS011;12204;50.600;4.608;2024-02-21T15:12:09;8.27;;;2.80;;
22415;SDS011;12204;50.600;4.608;2024-02-21T15:17:13;7.88;;;2.47;;
22415;SDS011;12204;50.600;4.608;2024-02-21T15:22:17;8.10;;;2.45;;
22415;SDS011;12204;50.600;4.608;2024-02-21T15:27:21;8.38;;;2.53;;
22415;SDS011;12204;50.600;4.608;2024-02-21T15:32:25;9.20;;;2.35;;
22415;SDS011;12204;50.600;4.608;2024-02-21T15:37:30;8.05;;;2.33;;
22415;SDS011;12204;50.600;4.608;2024-02-21T15:42:34;7.53;;;2.40;;
22415;SDS011;12204;50.600;4.608;2024-02-21T15:47:37;8.25;;;2.42;;
22415;SDS011;12204;50.600;4.608;2024-02-21T15:52:42;6.13;;;1.98;;
22415;SDS011;12204;50.600;4.608;2024-02-21T15:57:46;6.35;;;2.15;;
22415;SDS011;12204;50.600;4.608;2024-02-21T16:02:50;6.97;;;2.20;;
22415;SDS011;12204;50.600;4.608;2024-02-21T16:07:56;5.85;;;2.00;;
22415;SDS011;12204;50.600;4.608;2024-02-21T16:13:00;6.63;;;2.05;;
22415;SDS011;12204;50.600;4.608;2024-02-21T16:18:03;7.10;;;2.20;;
22415;SDS011;12204;50.600;4.608;2024-02-21T16:23:09;8.55;;;2.08;;
22415;SDS011;12204;50.600;4.608;2024-02-21T16:28:13;9.80;;;2.42;;
22415;SDS011;12204;50.600;4.608;2024-02-21T16:33:17;6.05;;;2.00;;
22415;SDS011;12204;50.600;4.608;2024-02-21T16:38:22;11.23;;;2.20;;
22415;SDS011;12204;50.600;4.608;2024-02-21T16:43:28;17.17;;;2.83;;
22415;SDS011;12204;50.600;4.608;2024-02-21T16:48:31;12.60;;;2.45;;
22415;SDS011;12204;50.600;4.608;2024-02-21T16:53:36;15.27;;;2.45;;
22415;SDS011;12204;50.600;4.608;2024-02-21T16:58:40;16.92;;;2.83;;
22415;SDS011;12204;50.600;4.608;2024-02-21T17:03:44;12.15;;;2.42;;
22415;SDS011;12204;50.600;4.608;2024-02-21T17:08:49;17.92;;;2.65;;
22415;SDS011;12204;50.600;4.608;2024-02-21T17:13:52;13.48;;;2.53;;
22415;SDS011;12204;50.600;4.608;2024-02-21T17:18:56;15.73;;;2.40;;
22415;SDS011;12204;50.600;4.608;2024-02-21T17:24:15;14.93;;;2.60;;
22415;SDS011;12204;50.600;4.608;2024-02-21T17:29:18;10.18;;;2.10;;
22415;SDS011;12204;50.600;4.608;2024-02-21T17:34:22;19.00;;;2.40;;
22415;SDS011;12204;50.600;4.608;2024-02-21T17:39:27;13.30;;;2.30;;
22415;SDS011;12204;50.600;4.608;2024-02-21T17:44:31;21.48;;;2.50;;
22415;SDS011;12204;50.600;4.608;2024-02-21T17:49:35;17.60;;;2.25;;
22415;SDS011;12204;50.600;4.608;2024-02-21T17:54:40;12.63;;;2.10;;
22415;SDS011;12204;50.600;4.608;2024-02-21T17:59:45;15.32;;;2.20;;
22415;SDS011;12204;50.600;4.608;2024-02-21T18:04:49;12.68;;;1.98;;
22415;SDS011;12204;50.600;4.608;2024-02-21T18:09:54;12.23;;;2.10;;
22415;SDS011;12204;50.600;4.608;2024-02-21T18:14:58;10.77;;;2.13;;
22415;SDS011;12204;50.600;4.608;2024-02-21T18:20:02;10.50;;;1.88;;
22415;SDS011;12204;50.600;4.608;2024-02-21T18:25:10;10.07;;;2.00;;
22415;SDS011;12204;50.600;4.608;2024-02-21T18:30:14;6.20;;;1.80;;
22415;SDS011;12204;50.600;4.608;2024-02-21T18:35:18;10.90;;;1.90;;
22415;SDS011;12204;50.600;4.608;2024-02-21T18:40:24;9.03;;;1.50;;
22415;SDS011;12204;50.600;4.608;2024-02-21T18:45:27;11.00;;;1.80;;
22415;SDS011;12204;50.600;4.608;2024-02-21T18:50:31;7.75;;;1.88;;
22415;SDS011;12204;50.600;4.608;2024-02-21T18:55:36;6.65;;;1.55;;
22415;SDS011;12204;50.600;4.608;2024-02-21T19:00:40;4.93;;;1.48;;
22415;SDS011;12204;50.600;4.608;2024-02-21T19:05:44;8.35;;;1.60;;
22415;SDS011;12204;50.600;4.608;2024-02-21T19:10:49;6.82;;;1.60;;
22415;SDS011;12204;50.600;4.608;2024-02-21T19:15:52;9.15;;;1.70;;
22415;SDS011;12204;50.600;4.608;2024-02-21T19:20:56;5.20;;;1.40;;
22415;SDS011;12204;50.600;4.608;2024-02-21T19:26:00;5.55;;;1.50;;
22415;SDS011;12204;50.600;4.608;2024-02-21T19:31:04;7.63;;;1.52;;
22415;SDS011;12204;50.600;4.608;2024-02-21T19:36:08;5.68;;;1.50;;
22415;SDS011;12204;50.600;4.608;2024-02-21T19:41:13;7.45;;;1.60;;
22415;SDS011;12204;50.600;4.608;2024-02-21T19:46:18;8.40;;;1.50;;
22415;SDS011;12204;50.600;4.608;2024-02-21T19:51:21;4.90;;;1.40;;
22415;SDS011;12204;50.600;4.608;2024-02-21T19:56:27;5.15;;;1.52;;
22415;SDS011;12204;50.600;4.608;2024-02-21T20:01:30;6.57;;;1.45;;
22415;SDS011;12204;50.600;4.608;2024-02-21T20:06:34;6.63;;;1.23;;
22415;SDS011;12204;50.600;4.608;2024-02-21T20:11:39;7.55;;;1.55;;
22415;SDS011;12204;50.600;4.608;2024-02-21T20:16:43;6.28;;;1.38;;
22415;SDS011;12204;50.600;4.608;2024-02-21T20:21:48;5.13;;;1.30;;
22415;SDS011;12204;50.600;4.608;2024-02-21T20:26:52;6.97;;;1.67;;
22415;SDS011;12204;50.600;4.608;2024-02-21T20:31:56;4.80;;;1.17;;
22415;SDS011;12204;50.600;4.608;2024-02-21T20:37:01;3.92;;;1.13;;
22415;SDS011;12204;50.600;4.608;2024-02-21T20:42:09;4.17;;;1.20;;
22415;SDS011;12204;50.600;4.608;2024-02-21T20:47:15;5.50;;;1.50;;
22415;SDS011;12204;50.600;4.608;2024-02-21T20:52:21;9.38;;;1.92;;
22415;SDS011;12204;50.600;4.608;2024-02-21T20:57:26;5.43;;;1.40;;
22415;SDS011;12204;50.600;4.608;2024-02-21T21:02:29;6.82;;;1.50;;
22415;SDS011;12204;50.600;4.608;2024-02-21T21:07:33;6.30;;;1.52;;
22415;SDS011;12204;50.600;4.608;2024-02-21T21:12:39;8.07;;;1.88;;
22415;SDS011;12204;50.600;4.608;2024-02-21T21:17:43;7.32;;;1.83;;
22415;SDS011;12204;50.600;4.608;2024-02-21T21:22:46;8.18;;;1.88;;
22415;SDS011;12204;50.600;4.608;2024-02-21T21:27:51;7.32;;;1.83;;
22415;SDS011;12204;50.600;4.608;2024-02-21T21:32:55;6.18;;;1.80;;
22415;SDS011;12204;50.600;4.608;2024-02-21T21:38:01;7.47;;;1.90;;
22415;SDS011;12204;50.600;4.608;2024-02-21T21:43:07;6.30;;;1.77;;
22415;SDS011;12204;50.600;4.608;2024-02-21T21:48:11;7.53;;;1.88;;
22415;SDS011;12204;50.600;4.608;2024-02-21T21:53:14;9.60;;;1.75;;
22415;SDS011;12204;50.600;4.608;2024-02-21T21:58:20;6.88;;;1.80;;
22415;SDS011;12204;50.600;4.608;2024-02-21T22:03:23;5.78;;;1.90;;
22415;SDS011;12204;50.600;4.608;2024-02-21T22:08:27;6.25;;;1.80;;
22415;SDS011;12204;50.600;4.608;2024-02-21T22:13:31;7.03;;;1.50;;
22415;SDS011;12204;50.600;4.608;2024-02-21T22:18:35;5.40;;;1.50;;
22415;SDS011;12204;50.600;4.608;2024-02-21T22:23:39;4.68;;;1.40;;
22415;SDS011;12204;50.600;4.608;2024-02-21T22:28:47;7.93;;;1.60;;
22415;SDS011;12204;50.600;4.608;2024-02-21T22:33:51;6.75;;;1.70;;
22415;SDS011;12204;50.600;4.608;2024-02-21T22:38:59;5.88;;;1.60;;
22415;SDS011;12204;50.600;4.608;2024-02-21T22:44:03;5.45;;;1.50;;
22415;SDS011;12204;50.600;4.608;2024-02-21T22:49:07;6.43;;;1.45;;
22415;SDS011;12204;50.600;4.608;2024-02-21T22:54:11;6.78;;;1.40;;
22415;SDS011;12204;50.600;4.608;2024-02-21T22:59:18;6.07;;;1.20;;
22415;SDS011;12204;50.600;4.608;2024-02-21T23:04:21;7.22;;;1.40;;
22415;SDS011;12204;50.600;4.608;2024-02-21T23:09:25;5.90;;;1.30;;
22415;SDS011;12204;50.600;4.608;2024-02-21T23:14:29;4.20;;;1.30;;
22415;SDS011;12204;50.600;4.608;2024-02-21T23:19:33;4.53;;;1.38;;
22415;SDS011;12204;50.600;4.608;2024-02-21T23:24:36;5.43;;;1.33;;
22415;SDS011;12204;50.600;4.608;2024-02-21T23:29:41;4.70;;;1.20;;
22415;SDS011;12204;50.600;4.608;2024-02-21T23:34:46;4.53;;;1.20;;
22415;SDS011;12204;50.600;4.608;2024-02-21T23:39:51;5.30;;;1.30;;
22415;SDS011;12204;50.600;4.608;2024-02-21T23:44:56;4.25;;;1.00;;
22415;SDS011;12204;50.600;4.608;2024-02-21T23:49:59;4.32;;;1.23;;
22415;SDS011;12204;50.600;4.608;2024-02-21T23:55:03;4.03;;;1.20;;
